FNLUHKNW

Guest
Details From FNLU - Luanda 4 De Fevereiro
To HKNW - Nairobi Wilson
Flight Number -
Tags Generated
Created
Modified
Stats Distance 1,481 nm / 2,742 km
Max Altitude 0 ft / 0 m
Waypoints 4
Social Downloads 0
Likes 0
Share VATSIM

Download

Looking for another format? Having issues loading an existing format? Contact us
Advertisement - Login to hide

Notes

Generated

Route

FNLU MZ GG HKNW

ID Type Via Altitude Latitude Longitude Leg Dist Tot Dist Heading (true) Name
O FNLU APT - 0 ft / 0 m -8.85561˚ 13.22570˚ - 0 nm - LUANDA 4 DE FEVEREIRO
MZ NDB - 0 ft / 0 m -2.44219˚ 32.92394˚ 1238 nm 1238 nm 73° / 71° MWANZA NDB
GG NDB - 0 ft / 0 m -1.39038˚ 36.63786˚ 231 nm 1469 nm 74° / 74° NGONG NDB
O HKNW APT - 0 ft / 0 m -1.32485˚ 36.80633˚ 10 nm 1480 nm 69° / 69° NAIROBI WILSON

Altitude Profile

Advertisement - Login to hide

Weather


0- 5 10 15 20 25 30 35+ Temperature / ° C

Clouds and Precipitation
Forecast for 2017-12-17 18:00 UTC. Updated an hour ago

Ground ~20,000 ft ~40,000 ft Winds

FNLU

Details ICAO FNLU (LAD)
Name LUANDA 4 DE FEVEREIRO
Region Angola
Timezone Africa/Luanda (UTC+1.0)
Stats Elevation 243 ft / 74 m (AMSL)
Location -8.858377° 13.231178°
Runways 2
Magnetic Variation 3.481° W

METAR

FNLU 171600Z 24006KT 9999 FEW023 BKN230 28/22 Q1007 NOSIG

Decode

TAF

TAF FNLU 171100Z 1712/1818 28010KT 9999 BKN023 TEMPO 1718/1724 19005KT FEW020 BKN050 BECMG 1801/1803 VRB03KT 8000 BKN020 PROB30 TEMPO 1804/1808 -DZ FEW018 BECMG 1812/1814 29010KT 9999 BKN023

Decode

Departure Runways

ID Width Length Bearing (true) Bearing (mag) Surface Threshold Offset Overrun Length
05 148 ft / 45 m 12,153 ft / 3,704 m 46.63° 50.11° Asphalt 0 ft / 0 m 0 ft / 0 m
07 197 ft / 60 m 8,176 ft / 2,492 m 67.40° 70.88° Asphalt 0 ft / 0 m 176 ft / 54 m
23 148 ft / 45 m 12,153 ft / 3,704 m 226.62° 230.10° Asphalt 500 ft / 152 m 0 ft / 0 m
25 197 ft / 60 m 8,176 ft / 2,492 m 247.40° 250.88° Asphalt 0 ft / 0 m 0 ft / 0 m

HKNW

Details ICAO HKNW (WIL)
Name NAIROBI WILSON
Region Kenya
Timezone Africa/Nairobi (UTC+3.0)
Stats Elevation 5,546 ft / 1,690 m (AMSL)
Location -1.323145° 36.814695°
Runways 2
Magnetic Variation 0.595° E

METAR

HKNW 171600Z 06010KT 9999 SCT025 23/12 Q1019

Decode

TAF

Not found

Destination Runways

ID Width Length Bearing (true) Bearing (mag) Surface Threshold Offset Overrun Length
07 72 ft / 22 m 4,799 ft / 1,463 m 69.77° 69.17° Asphalt 0 ft / 0 m 0 ft / 0 m
14 76 ft / 23 m 5,065 ft / 1,544 m 134.15° 133.55° Asphalt 0 ft / 0 m 0 ft / 0 m
25 72 ft / 22 m 4,799 ft / 1,463 m 249.77° 249.17° Asphalt 0 ft / 0 m 0 ft / 0 m
32 76 ft / 23 m 5,065 ft / 1,544 m 314.15° 313.55° Asphalt 0 ft / 0 m 0 ft / 0 m